createdAt,value
2022-12-05T00:02:03.857Z,19.38
2022-12-05T00:04:31.376Z,22.77
2022-12-05T00:07:00.146Z,25.63
2022-12-05T00:09:27.534Z,25.35
2022-12-05T00:11:54.948Z,20.33
2022-12-05T00:14:22.311Z,17.10
2022-12-05T00:16:49.772Z,23.85
2022-12-05T00:19:17.254Z,18.05
2022-12-05T00:21:45.191Z,20.15
2022-12-05T00:24:15.101Z,23.30
2022-12-05T00:29:10.857Z,14.88
2022-12-05T00:31:38.957Z,16.55
2022-12-05T00:34:06.450Z,16.75
2022-12-05T00:36:35.165Z,19.10
2022-12-05T00:39:03.546Z,17.70
2022-12-05T00:41:32.278Z,16.13
2022-12-05T00:44:01.791Z,18.00
2022-12-05T00:46:30.044Z,17.30
2022-12-05T00:48:58.722Z,17.65
2022-12-05T00:51:28.298Z,22.80
2022-12-05T00:53:56.203Z,18.23
2022-12-05T00:56:24.263Z,17.10
2022-12-05T00:58:54.044Z,15.48
2022-12-05T01:01:22.890Z,14.57
2022-12-05T01:03:52.076Z,14.73
2022-12-05T01:06:19.497Z,16.77
2022-12-05T01:08:46.922Z,19.15
2022-12-05T01:11:16.195Z,17.63
2022-12-05T01:13:43.936Z,18.67
2022-12-05T01:16:16.095Z,17.20
2022-12-05T01:18:43.501Z,20.55
2022-12-05T01:21:10.948Z,19.00
2022-12-05T01:23:38.454Z,19.02
2022-12-05T01:26:07.152Z,20.70
2022-12-05T01:28:34.819Z,17.95
2022-12-05T01:31:05.128Z,18.20
2022-12-05T01:33:34.213Z,19.35
2022-12-05T01:36:01.764Z,23.37
2022-12-05T01:38:29.297Z,18.08
2022-12-05T01:41:03.286Z,19.23
2022-12-05T01:43:30.826Z,19.00
2022-12-05T01:48:36.220Z,22.63
2022-12-05T01:51:03.792Z,16.92
2022-12-05T01:53:31.463Z,17.88
2022-12-05T01:55:58.845Z,18.25
2022-12-05T01:58:29.276Z,18.65
2022-12-05T02:00:56.722Z,21.13
2022-12-05T02:03:24.214Z,17.23
2022-12-05T02:05:54.593Z,16.77
2022-12-05T02:08:22.246Z,16.90
2022-12-05T02:10:50.676Z,15.57
2022-12-05T02:13:33.403Z,18.48
2022-12-05T02:16:02.222Z,16.00
2022-12-05T02:18:35.693Z,14.07
2022-12-05T02:21:11.904Z,14.32
2022-12-05T02:23:53.307Z,17.50
2022-12-05T02:26:38.460Z,17.40
2022-12-05T02:29:14.914Z,15.35
2022-12-05T02:31:47.611Z,13.77
2022-12-05T02:34:17.189Z,16.20
2022-12-05T02:36:46.635Z,14.55
2022-12-05T02:39:16.413Z,16.42
2022-12-05T02:41:48.610Z,14.35
2022-12-05T02:44:19.098Z,12.93
2022-12-05T02:46:49.034Z,13.43
2022-12-05T02:51:46.606Z,15.60
2022-12-05T02:54:16.296Z,12.73
2022-12-05T02:56:45.190Z,13.32
2022-12-05T02:59:12.631Z,12.60
2022-12-05T03:01:40.135Z,11.45
2022-12-05T03:04:11.300Z,16.15
2022-12-05T03:06:40.277Z,9.98
2022-12-05T03:09:10.167Z,11.87
2022-12-05T03:14:07.435Z,12.68
2022-12-05T03:16:37.640Z,10.20
2022-12-05T03:19:07.945Z,12.23
2022-12-05T03:21:38.065Z,10.82
2022-12-05T03:24:08.393Z,11.55
2022-12-05T03:26:44.991Z,12.05
2022-12-05T03:29:20.711Z,9.98
2022-12-05T03:31:53.552Z,9.57
2022-12-05T03:34:26.905Z,9.27
2022-12-05T03:36:55.655Z,10.85
2022-12-05T03:39:24.402Z,9.77
2022-12-05T03:41:58.201Z,10.13
2022-12-05T03:44:29.320Z,9.88
2022-12-05T03:47:01.409Z,9.18
2022-12-05T03:49:34.102Z,9.85
2022-12-05T03:52:05.291Z,9.25
2022-12-05T03:54:35.700Z,9.85
2022-12-05T03:57:04.952Z,8.32
2022-12-05T03:59:35.686Z,8.20
2022-12-05T04:02:06.048Z,8.55
2022-12-05T04:04:35.366Z,8.98
2022-12-05T04:07:05.647Z,7.82
2022-12-05T04:09:36.113Z,9.60
2022-12-05T04:12:06.097Z,8.25
2022-12-05T04:17:06.155Z,9.32
2022-12-05T04:19:51.685Z,8.15
2022-12-05T04:22:20.964Z,9.45
2022-12-05T04:25:07.223Z,7.70
2022-12-05T04:27:38.746Z,7.05
2022-12-05T04:30:07.438Z,7.88
2022-12-05T04:32:38.625Z,7.50
2022-12-05T04:35:09.933Z,7.68
2022-12-05T04:37:41.048Z,6.30
2022-12-05T04:40:10.706Z,7.22
2022-12-05T04:42:39.807Z,7.35
2022-12-05T04:45:09.059Z,5.43
2022-12-05T04:47:38.242Z,5.22
2022-12-05T04:50:07.566Z,7.10
2022-12-05T04:52:35.128Z,6.45
2022-12-05T04:55:07.153Z,6.90
2022-12-05T04:57:36.586Z,6.60
2022-12-05T05:00:04.831Z,7.15
2022-12-05T05:02:33.896Z,6.60
2022-12-05T05:05:03.318Z,6.40
2022-12-05T05:07:30.754Z,6.40
2022-12-05T05:09:58.473Z,7.32
2022-12-05T05:12:27.515Z,5.50
2022-12-05T05:14:54.947Z,6.28
2022-12-05T05:17:22.353Z,6.53
2022-12-05T05:19:49.768Z,6.53
2022-12-05T05:22:17.188Z,6.53
2022-12-05T05:24:44.558Z,7.85
2022-12-05T05:27:11.966Z,6.53
2022-12-05T05:29:40.798Z,6.20
2022-12-05T05:32:08.169Z,6.13
2022-12-05T05:34:35.613Z,6.43
2022-12-05T05:37:03.007Z,6.95
2022-12-05T05:39:30.396Z,6.43
2022-12-05T05:41:57.816Z,5.43
2022-12-05T05:44:25.220Z,6.32
2022-12-05T05:46:54.608Z,7.00
2022-12-05T05:49:22.392Z,6.68
2022-12-05T05:51:49.818Z,7.75
2022-12-05T05:54:17.245Z,6.38
2022-12-05T05:56:44.680Z,6.75
2022-12-05T05:59:12.088Z,5.82
2022-12-05T06:01:39.517Z,10.32
2022-12-05T06:04:08.511Z,6.18
2022-12-05T06:06:36.055Z,7.93
2022-12-05T06:09:03.466Z,5.80
2022-12-05T06:11:30.889Z,5.97
2022-12-05T06:14:00.934Z,6.10
2022-12-05T06:16:28.724Z,6.13
2022-12-05T06:18:56.279Z,6.88
2022-12-05T06:21:25.038Z,5.60
2022-12-05T06:23:52.891Z,6.20
2022-12-05T06:26:21.381Z,6.85
2022-12-05T06:28:49.258Z,6.80
2022-12-05T06:31:17.782Z,6.50
2022-12-05T06:33:45.441Z,8.32
2022-12-05T06:36:14.806Z,7.00
2022-12-05T06:38:44.099Z,8.70
2022-12-05T06:41:12.475Z,5.00
2022-12-05T06:43:39.876Z,5.43
2022-12-05T06:46:07.946Z,7.15
2022-12-05T06:48:35.964Z,5.57
2022-12-05T06:51:03.380Z,7.80
2022-12-05T06:53:30.869Z,7.90
2022-12-05T06:56:00.522Z,11.45
2022-12-05T06:58:28.169Z,8.32
2022-12-05T07:01:13.724Z,8.23
2022-12-05T07:03:43.880Z,9.57
2022-12-05T07:06:11.299Z,7.53
2022-12-05T07:08:39.018Z,7.63
2022-12-05T07:11:07.999Z,8.75
2022-12-05T07:13:35.411Z,7.87
2022-12-05T07:16:02.866Z,10.82
2022-12-05T07:18:30.302Z,7.78
2022-12-05T07:21:13.948Z,8.00
2022-12-05T07:23:41.962Z,8.38
2022-12-05T07:26:11.410Z,12.48
2022-12-05T07:28:38.831Z,11.25
2022-12-05T07:31:07.376Z,9.75
2022-12-05T07:33:34.866Z,9.95
2022-12-05T07:36:02.662Z,11.07
2022-12-05T07:38:30.527Z,8.63
2022-12-05T07:40:58.062Z,9.73
2022-12-05T07:43:26.785Z,6.75
2022-12-05T07:45:54.321Z,7.28
2022-12-05T07:48:22.088Z,13.10
2022-12-05T07:50:49.482Z,7.72
2022-12-05T07:53:16.865Z,7.57
2022-12-05T07:55:44.273Z,9.05
2022-12-05T07:58:11.925Z,9.93
2022-12-05T08:00:40.697Z,7.78
2022-12-05T08:03:08.128Z,6.90
2022-12-05T08:05:35.567Z,7.25
2022-12-05T08:08:03.030Z,8.77
2022-12-05T08:10:31.180Z,8.95
2022-12-05T08:12:58.699Z,8.35
2022-12-05T08:15:26.350Z,9.88
2022-12-05T08:17:55.086Z,7.00
2022-12-05T08:20:22.503Z,7.63
2022-12-05T08:22:52.411Z,9.55
2022-12-05T08:27:47.084Z,7.35
2022-12-05T08:30:14.610Z,7.38
2022-12-05T08:32:42.016Z,6.90
2022-12-05T08:35:11.135Z,7.25
2022-12-05T08:37:38.550Z,6.93
2022-12-05T08:40:06.620Z,7.88
2022-12-05T08:42:34.032Z,8.48
2022-12-05T08:45:01.455Z,9.10
2022-12-05T08:47:29.448Z,12.57
2022-12-05T08:49:58.501Z,9.18
2022-12-05T08:52:27.418Z,8.02
2022-12-05T08:54:54.816Z,7.85
2022-12-05T08:57:22.238Z,8.20
2022-12-05T08:59:49.644Z,8.18
2022-12-05T09:02:17.130Z,10.38
2022-12-05T09:04:47.273Z,13.27
2022-12-05T09:07:16.957Z,9.95
2022-12-05T09:09:45.804Z,8.10
2022-12-05T09:12:13.282Z,8.90
2022-12-05T09:14:40.669Z,8.27
2022-12-05T09:17:08.386Z,9.30
2022-12-05T09:19:35.792Z,11.13
2022-12-05T09:22:03.197Z,10.43
2022-12-05T09:24:30.627Z,12.57
2022-12-05T09:26:59.368Z,10.25
2022-12-05T09:29:29.416Z,10.02
2022-12-05T09:31:56.814Z,15.15
2022-12-05T09:34:25.967Z,11.45
2022-12-05T09:37:05.690Z,11.35
2022-12-05T09:39:38.087Z,9.68
2022-12-05T09:42:21.579Z,9.13
2022-12-05T09:44:57.815Z,8.52
2022-12-05T09:47:30.669Z,9.20
2022-12-05T09:49:59.655Z,7.10
2022-12-05T09:52:28.806Z,11.00
2022-12-05T09:54:56.724Z,8.15
2022-12-05T09:57:33.684Z,7.30
2022-12-05T10:00:03.557Z,6.82
2022-12-05T10:02:36.520Z,9.50
2022-12-05T10:05:07.519Z,8.80
2022-12-05T10:07:38.956Z,7.72
2022-12-05T10:10:20.461Z,10.63
2022-12-05T10:12:54.106Z,8.73
2022-12-05T10:15:26.131Z,9.20
2022-12-05T10:17:55.383Z,9.13
2022-12-05T10:20:29.275Z,9.23
2022-12-05T10:22:59.798Z,7.85
2022-12-05T10:25:27.966Z,11.23
2022-12-05T10:27:58.837Z,10.68
2022-12-05T10:30:26.787Z,11.23
2022-12-05T10:32:55.478Z,11.15
2022-12-05T10:35:24.203Z,7.32
2022-12-05T10:37:52.921Z,10.75
2022-12-05T10:40:21.032Z,8.52
2022-12-05T10:42:49.399Z,10.48
2022-12-05T10:45:19.845Z,12.15
2022-12-05T10:47:47.672Z,10.38
2022-12-05T10:50:22.282Z,9.48
2022-12-05T10:52:49.820Z,12.27
2022-12-05T10:55:18.356Z,14.75
2022-12-05T10:57:50.367Z,11.40
2022-12-05T11:00:21.163Z,20.13
2022-12-05T11:02:49.220Z,12.05
2022-12-05T11:05:16.748Z,15.80
2022-12-05T11:07:48.359Z,13.20
2022-12-05T11:10:26.685Z,17.73
2022-12-05T11:13:02.295Z,12.35
2022-12-05T11:15:32.012Z,11.77
2022-12-05T11:18:17.738Z,11.15
2022-12-05T11:20:45.239Z,17.45
2022-12-05T11:23:33.573Z,11.93
2022-12-05T11:26:00.991Z,11.48
2022-12-05T11:28:36.272Z,11.10
2022-12-05T11:31:06.282Z,13.48
2022-12-05T11:33:34.793Z,11.20
2022-12-05T11:36:04.720Z,11.05
2022-12-05T11:43:42.859Z,9.35
2022-12-05T11:46:22.285Z,12.25
2022-12-05T11:48:58.310Z,11.13
2022-12-05T11:51:32.682Z,11.00
2022-12-05T11:54:06.229Z,14.52
2022-12-05T11:56:38.384Z,16.17
2022-12-05T11:59:17.146Z,17.63
2022-12-05T12:01:52.794Z,21.70
2022-12-05T12:04:29.605Z,24.00
2022-12-05T12:07:04.991Z,19.67
2022-12-05T12:09:36.905Z,18.05
2022-12-05T12:12:07.357Z,16.05
2022-12-05T12:14:38.018Z,17.02
2022-12-05T12:17:16.222Z,15.75
2022-12-05T12:19:49.603Z,14.27
2022-12-05T12:22:27.945Z,16.17
2022-12-05T12:25:01.087Z,18.10
2022-12-05T12:27:34.330Z,16.35
2022-12-05T12:30:04.278Z,17.40
2022-12-05T12:35:17.831Z,17.40
2022-12-05T12:37:53.269Z,20.00
2022-12-05T12:40:22.977Z,14.75
2022-12-05T12:42:56.571Z,15.75
2022-12-05T12:45:42.128Z,15.98
2022-12-05T12:48:15.097Z,16.17
2022-12-05T12:50:44.511Z,12.40
2022-12-05T12:53:30.809Z,14.63
2022-12-05T12:56:04.126Z,15.43
2022-12-05T12:58:40.339Z,12.98
2022-12-05T13:01:12.527Z,13.32
2022-12-05T13:03:46.088Z,15.60
2022-12-05T13:06:17.760Z,17.05
2022-12-05T13:08:46.821Z,13.55
2022-12-05T13:11:16.277Z,20.60
2022-12-05T13:13:45.375Z,16.30
2022-12-05T13:16:15.171Z,16.80
2022-12-05T13:18:42.584Z,17.95
2022-12-05T13:21:10.953Z,15.38
2022-12-05T13:23:45.390Z,15.57
2022-12-05T13:26:13.669Z,14.32
2022-12-05T13:28:48.666Z,20.58
2022-12-05T13:31:18.047Z,16.05
2022-12-05T13:33:46.802Z,14.80
2022-12-05T13:36:32.521Z,14.77
2022-12-05T13:39:18.463Z,16.38
2022-12-05T13:42:04.291Z,16.30
2022-12-05T13:44:36.066Z,13.50
2022-12-05T13:47:08.285Z,15.50
2022-12-05T13:49:38.903Z,12.27
2022-12-05T13:52:08.363Z,14.82
2022-12-05T13:54:36.705Z,14.85
2022-12-05T13:57:05.256Z,17.25
2022-12-05T13:59:57.168Z,14.60
2022-12-05T14:02:43.668Z,14.55
2022-12-05T14:08:46.770Z,19.88
2022-12-05T14:11:15.600Z,17.85
2022-12-05T14:13:45.055Z,19.05
2022-12-05T14:16:31.663Z,21.00
2022-12-05T14:19:01.527Z,19.65
2022-12-05T14:21:37.783Z,18.52
2022-12-05T14:24:08.563Z,15.48
2022-12-05T14:26:47.478Z,13.60
2022-12-05T14:29:21.731Z,12.88
2022-12-05T14:32:03.978Z,13.52
2022-12-05T14:34:32.663Z,11.95
2022-12-05T14:37:01.554Z,15.63
2022-12-05T14:39:34.320Z,14.02
2022-12-05T14:42:05.068Z,15.00
2022-12-05T14:44:33.324Z,13.52
2022-12-05T14:47:03.194Z,15.65
2022-12-05T14:52:01.593Z,15.02
2022-12-05T14:54:29.219Z,18.13
2022-12-05T14:57:03.831Z,16.10
2022-12-05T14:59:33.915Z,18.15
2022-12-05T15:02:02.470Z,19.83
2022-12-05T15:04:33.405Z,21.58
2022-12-05T15:07:03.266Z,19.15
2022-12-05T15:12:09.881Z,17.98
2022-12-05T15:14:42.591Z,25.88
2022-12-05T15:17:13.900Z,23.15
2022-12-05T15:19:45.546Z,28.98
2022-12-05T15:22:14.720Z,28.77
2022-12-05T15:24:42.171Z,29.88
2022-12-05T15:27:11.586Z,36.65
2022-12-05T15:29:41.123Z,27.60
2022-12-05T15:32:16.770Z,22.45
2022-12-05T15:34:46.433Z,28.88
2022-12-05T15:37:16.525Z,25.88
2022-12-05T15:39:54.522Z,28.20
2022-12-05T15:42:27.690Z,26.38
2022-12-05T15:45:11.314Z,22.67
2022-12-05T15:47:41.450Z,25.02
2022-12-05T15:50:15.582Z,27.75
2022-12-05T15:52:47.145Z,27.75
2022-12-05T15:55:16.150Z,23.20
2022-12-05T15:57:46.110Z,28.77
2022-12-05T16:02:45.096Z,37.58
2022-12-05T16:05:20.348Z,28.40
2022-12-05T16:07:48.126Z,31.08
2022-12-05T16:10:16.359Z,30.05
2022-12-05T16:12:44.126Z,36.38
2022-12-05T16:15:15.919Z,32.22
2022-12-05T16:17:47.519Z,37.42
2022-12-05T16:20:23.103Z,36.75
2022-12-05T16:22:51.502Z,33.95
2022-12-05T16:25:19.837Z,29.08
2022-12-05T16:27:57.350Z,30.30
2022-12-05T16:30:25.326Z,29.33
2022-12-05T16:33:00.663Z,26.02
2022-12-05T16:35:30.126Z,29.52
2022-12-05T16:38:04.066Z,27.25
2022-12-05T16:40:31.571Z,26.35
2022-12-05T16:43:02.119Z,22.10
2022-12-05T16:45:38.636Z,28.00
2022-12-05T16:48:15.280Z,35.20
2022-12-05T16:50:43.204Z,36.55
2022-12-05T16:53:16.453Z,47.63
2022-12-05T16:55:45.106Z,35.67
2022-12-05T16:58:14.266Z,33.30
2022-12-05T17:00:44.045Z,30.85
2022-12-05T17:03:33.568Z,24.48
2022-12-05T17:06:01.803Z,24.35
2022-12-05T17:08:29.454Z,23.35
2022-12-05T17:10:56.954Z,26.38
2022-12-05T17:13:24.809Z,25.67
2022-12-05T17:15:52.235Z,24.33
2022-12-05T17:18:26.534Z,20.40
2022-12-05T17:20:58.048Z,20.15
2022-12-05T17:23:25.569Z,21.30
2022-12-05T17:25:54.666Z,23.35
2022-12-05T17:28:22.490Z,27.73
2022-12-05T17:30:50.119Z,27.40
2022-12-05T17:33:18.545Z,32.10
2022-12-05T17:35:47.692Z,27.00
2022-12-05T17:38:15.192Z,24.60
2022-12-05T17:40:42.706Z,25.85
2022-12-05T17:43:12.197Z,25.85
2022-12-05T17:45:39.603Z,23.55
2022-12-05T17:48:07.163Z,24.33
2022-12-05T17:50:34.683Z,24.65
2022-12-05T17:53:07.370Z,20.30
2022-12-05T17:55:35.114Z,19.77
2022-12-05T17:58:02.627Z,20.33
2022-12-05T18:00:30.301Z,20.20
2022-12-05T18:03:00.206Z,21.30
2022-12-05T18:07:55.110Z,17.25
2022-12-05T18:10:24.366Z,19.13
2022-12-05T18:12:51.882Z,17.55
2022-12-05T18:15:19.369Z,18.52
2022-12-05T18:17:46.988Z,16.27
2022-12-05T18:20:15.786Z,16.38
2022-12-05T18:22:43.454Z,21.73
2022-12-05T18:25:11.418Z,19.90
2022-12-05T18:27:40.211Z,20.00
2022-12-05T18:30:09.037Z,20.88
2022-12-05T18:32:36.464Z,25.00
2022-12-05T18:35:09.895Z,29.25
2022-12-05T18:37:40.190Z,22.45
2022-12-05T18:40:08.590Z,23.85
2022-12-05T18:42:36.391Z,23.08
2022-12-05T18:45:05.868Z,22.88
2022-12-05T18:47:33.646Z,26.80
2022-12-05T18:50:02.612Z,31.83
2022-12-05T18:52:30.100Z,25.65
2022-12-05T18:55:15.836Z,16.42
2022-12-05T18:57:44.590Z,18.52
2022-12-05T19:00:14.060Z,20.90
2022-12-05T19:02:41.774Z,21.20
2022-12-05T19:05:09.466Z,21.80
2022-12-05T19:07:36.898Z,21.60
2022-12-05T19:10:04.557Z,26.05
2022-12-05T19:12:32.022Z,25.48
2022-12-05T19:14:59.682Z,22.17
2022-12-05T19:17:28.616Z,22.38
2022-12-05T19:19:57.254Z,24.13
2022-12-05T19:22:27.102Z,28.25
2022-12-05T19:27:21.830Z,28.80
2022-12-05T19:29:49.254Z,27.50
2022-12-05T19:32:16.685Z,30.13
2022-12-05T19:34:46.484Z,29.92
2022-12-05T19:37:13.966Z,28.42
2022-12-05T19:39:42.806Z,25.73
2022-12-05T19:42:10.297Z,23.42
2022-12-05T19:44:37.723Z,27.17
2022-12-05T19:47:05.154Z,26.77
2022-12-05T19:49:32.551Z,27.10
2022-12-05T19:52:01.309Z,26.42
2022-12-05T19:54:28.828Z,22.23
2022-12-05T19:56:58.448Z,25.23
2022-12-05T19:59:25.933Z,23.02
2022-12-05T20:01:53.474Z,23.25
2022-12-05T20:04:21.029Z,24.20
2022-12-05T20:06:49.146Z,22.20
2022-12-05T20:09:18.722Z,22.23
2022-12-05T20:11:52.674Z,22.67
2022-12-05T20:14:22.328Z,22.08
2022-12-05T20:16:52.343Z,24.05
2022-12-05T20:19:19.828Z,23.38
2022-12-05T20:21:47.226Z,24.00
2022-12-05T20:24:14.645Z,21.92
2022-12-05T20:26:44.793Z,23.67
2022-12-05T20:29:12.424Z,22.85
2022-12-05T20:31:42.064Z,24.65
2022-12-05T20:34:10.355Z,22.75
2022-12-05T20:36:37.906Z,20.02
2022-12-05T20:39:06.465Z,19.80
2022-12-05T20:41:34.185Z,20.23
2022-12-05T20:44:04.095Z,18.08
2022-12-05T20:48:59.172Z,20.40
2022-12-05T20:51:27.758Z,25.33
2022-12-05T20:53:58.024Z,31.35
2022-12-05T20:56:26.192Z,23.50
2022-12-05T20:58:55.691Z,22.38
2022-12-05T21:01:25.431Z,23.02
2022-12-05T21:03:53.388Z,22.48
2022-12-05T21:06:22.850Z,22.45
2022-12-05T21:08:50.944Z,20.20
2022-12-05T21:11:18.414Z,18.70
2022-12-05T21:13:46.067Z,20.23
2022-12-05T21:16:16.492Z,23.90
2022-12-05T21:18:46.856Z,20.40
2022-12-05T21:21:15.514Z,27.85
2022-12-05T21:23:43.332Z,24.45
2022-12-05T21:26:13.519Z,27.05
2022-12-05T21:28:41.007Z,26.02
2022-12-05T21:31:09.241Z,24.27
2022-12-05T21:33:36.692Z,30.10
2022-12-05T21:36:06.082Z,28.63
2022-12-05T21:38:33.883Z,27.15
2022-12-05T21:41:01.342Z,29.50
2022-12-05T21:43:29.212Z,29.83
2022-12-05T21:45:57.051Z,28.88
2022-12-05T21:48:25.148Z,29.30
2022-12-05T21:50:52.721Z,28.00
2022-12-05T21:53:21.824Z,27.45
2022-12-05T21:55:49.282Z,27.95
2022-12-05T21:58:16.673Z,23.38
2022-12-05T22:00:44.161Z,23.73
2022-12-05T22:03:14.642Z,21.88
2022-12-05T22:05:42.120Z,19.88
2022-12-05T22:08:09.607Z,15.30
2022-12-05T22:10:38.618Z,17.27
2022-12-05T22:13:06.025Z,17.53
2022-12-05T22:15:33.572Z,20.00
2022-12-05T22:18:01.114Z,20.15
2022-12-05T22:20:28.501Z,21.42
2022-12-05T22:22:55.935Z,17.90
2022-12-05T22:25:23.345Z,19.70
2022-12-05T22:27:52.098Z,19.95
2022-12-05T22:30:19.783Z,19.52
2022-12-05T22:32:47.205Z,20.02
2022-12-05T22:35:14.649Z,21.60
2022-12-05T22:37:42.043Z,18.02
2022-12-05T22:40:10.609Z,18.58
2022-12-05T22:42:37.999Z,16.55
2022-12-05T22:45:08.053Z,15.85
2022-12-05T22:47:35.442Z,16.23
2022-12-05T22:50:02.956Z,14.93
2022-12-05T22:52:30.373Z,13.57
2022-12-05T22:54:58.056Z,11.70
2022-12-05T22:57:25.597Z,11.82
2022-12-05T22:59:53.083Z,11.80
2022-12-05T23:02:21.892Z,16.25
2022-12-05T23:04:49.652Z,15.73
2022-12-05T23:07:17.522Z,16.73
2022-12-05T23:09:44.983Z,20.02
2022-12-05T23:12:12.763Z,17.50
2022-12-05T23:14:40.286Z,16.67
2022-12-05T23:17:07.810Z,15.20
2022-12-05T23:19:36.612Z,16.75
2022-12-05T23:22:04.088Z,13.63
2022-12-05T23:24:31.574Z,15.77
2022-12-05T23:26:59.010Z,13.73
2022-12-05T23:29:26.503Z,14.32
2022-12-05T23:31:54.037Z,15.35
2022-12-05T23:34:21.542Z,13.77
2022-12-05T23:36:50.757Z,14.43
2022-12-05T23:39:18.344Z,15.52
2022-12-05T23:41:46.688Z,12.15
2022-12-05T23:44:14.135Z,14.98
2022-12-05T23:46:41.651Z,11.30
2022-12-05T23:49:09.317Z,13.13
2022-12-05T23:51:40.156Z,11.80
2022-12-05T23:54:10.510Z,12.20
2022-12-05T23:56:38.561Z,13.80
2022-12-05T23:59:07.031Z,11.68
